Time;durP1;ratioP1;P1;durP2;ratioP2;P2;SDS_P1;SDS_P2;PMS_P1;PMS_P2;Temp;Humidity;BMP_temperature;BMP_pressure;BME280_temperature;BME280_humidity;BME280_pressure;Samples;Min_cycle;Max_cycle;Signal;HPM_P1;HPM_P2
2023/08/18 00:02:20;;;;;;;30.98;12.82;;;;;;;;;;5074160;28;20012;-84
2023/08/18 00:04:45;;;;;;;25.42;12.05;;;;;;;;;;5067255;28;20373;-84
2023/08/18 00:07:11;;;;;;;30.23;12.80;;;;;;;;;;5062791;28;20131;-84
2023/08/18 00:09:39;;;;;;;22.88;11.00;;;;;;;;;;5069927;28;20023;-85
2023/08/18 00:12:05;;;;;;;27.88;13.20;;;;;;;;;;5067806;28;20110;-85
2023/08/18 00:14:30;;;;;;;27.00;13.20;;;;;;;;;;5072156;28;20109;-85
2023/08/18 00:16:56;;;;;;;28.52;13.80;;;;;;;;;;5064584;28;20456;-85
2023/08/18 00:19:21;;;;;;;29.00;13.07;;;;;;;;;;5093278;28;20531;-85
2023/08/18 00:21:47;;;;;;;30.88;13.38;;;;;;;;;;5081287;28;20047;-85
2023/08/18 00:24:14;;;;;;;24.45;12.60;;;;;;;;;;5072815;28;20040;-84
2023/08/18 00:26:41;;;;;;;20.75;11.32;;;;;;;;;;5070203;28;20086;-85
2023/08/18 00:29:06;;;;;;;27.73;12.38;;;;;;;;;;5057143;28;20107;-85
2023/08/18 00:31:32;;;;;;;30.70;13.73;;;;;;;;;;5060569;28;20063;-85
2023/08/18 00:33:57;;;;;;;26.15;12.63;;;;;;;;;;5057374;28;20017;-84
2023/08/18 00:36:25;;;;;;;22.48;11.63;;;;;;;;;;5055452;28;20021;-84
2023/08/18 00:38:50;;;;;;;28.10;13.63;;;;;;;;;;5042851;28;20059;-83
2023/08/18 00:41:15;;;;;;;26.92;13.52;;;;;;;;;;5068853;28;20475;-83
2023/08/18 00:43:41;;;;;;;31.52;14.40;;;;;;;;;;5072676;28;20017;-85
2023/08/18 00:46:06;;;;;;;32.47;14.55;;;;;;;;;;5055007;28;20487;-85
2023/08/18 00:48:34;;;;;;;35.38;15.55;;;;;;;;;;5074156;28;20433;-84
2023/08/18 00:51:00;;;;;;;35.15;17.13;;;;;;;;;;5065399;28;20388;-85
2023/08/18 00:53:26;;;;;;;34.55;14.70;;;;;;;;;;5062702;28;20032;-85
2023/08/18 00:55:51;;;;;;;35.33;15.88;;;;;;;;;;5070493;28;20032;-85
2023/08/18 00:58:16;;;;;;;31.42;14.82;;;;;;;;;;5065641;28;20024;-85
2023/08/18 01:00:45;;;;;;;33.30;15.50;;;;;;;;;;5059723;28;20030;-85
2023/08/18 01:03:10;;;;;;;33.75;14.30;;;;;;;;;;5083714;28;20456;-84
2023/08/18 01:05:35;;;;;;;37.97;15.98;;;;;;;;;;5055101;28;20070;-84
2023/08/18 01:08:01;;;;;;;41.00;16.90;;;;;;;;;;5057798;28;20470;-85
2023/08/18 01:10:27;;;;;;;38.65;16.35;;;;;;;;;;5074150;28;20021;-83
2023/08/18 01:13:00;;;;;;;39.53;15.55;;;;;;;;;;5059230;28;20031;-85
2023/08/18 01:15:36;;;;;;;43.38;15.68;;;;;;;;;;5062405;28;20459;-84
2023/08/18 01:18:04;;;;;;;43.13;16.83;;;;;;;;;;5073386;28;20348;-85
2023/08/18 01:20:32;;;;;;;42.83;16.70;;;;;;;;;;5062132;28;20028;-85
2023/08/18 01:23:01;;;;;;;45.17;17.85;;;;;;;;;;5046891;28;20049;-85
2023/08/18 01:25:26;;;;;;;45.63;17.88;;;;;;;;;;5055540;28;20048;-85
2023/08/18 01:27:52;;;;;;;44.03;18.42;;;;;;;;;;5056474;28;20024;-85
2023/08/18 01:30:28;;;;;;;50.50;18.65;;;;;;;;;;5057307;28;20040;-85
2023/08/18 01:33:03;;;;;;;52.33;18.80;;;;;;;;;;5057785;28;20028;-85
2023/08/18 01:35:29;;;;;;;39.85;16.23;;;;;;;;;;5057768;28;20468;-84
2023/08/18 01:37:55;;;;;;;40.35;15.73;;;;;;;;;;5057070;28;20025;-84
2023/08/18 01:40:21;;;;;;;46.20;17.48;;;;;;;;;;5074580;28;20047;-84
2023/08/18 01:42:46;;;;;;;49.58;19.23;;;;;;;;;;5056679;28;20021;-85
2023/08/18 01:45:12;;;;;;;49.03;17.48;;;;;;;;;;5073719;28;20035;-85
2023/08/18 01:47:38;;;;;;;53.40;20.42;;;;;;;;;;5055649;28;20067;-85
2023/08/18 01:50:03;;;;;;;55.65;21.23;;;;;;;;;;5055568;28;20024;-85
2023/08/18 01:52:28;;;;;;;49.42;20.17;;;;;;;;;;5056372;28;20024;-85
2023/08/18 01:54:54;;;;;;;48.40;18.88;;;;;;;;;;5054457;28;20118;-85
2023/08/18 01:57:22;;;;;;;61.28;19.60;;;;;;;;;;5072474;28;20024;-84
2023/08/18 01:59:48;;;;;;;58.08;21.30;;;;;;;;;;5055004;28;20028;-85
2023/08/18 02:02:13;;;;;;;52.00;19.02;;;;;;;;;;5055190;28;20028;-85
2023/08/18 02:04:38;;;;;;;49.97;18.90;;;;;;;;;;5055045;28;20490;-84
2023/08/18 02:07:04;;;;;;;49.38;19.45;;;;;;;;;;5053999;28;20016;-84
2023/08/18 02:09:29;;;;;;;58.88;20.83;;;;;;;;;;5054871;28;20082;-85
2023/08/18 02:11:59;;;;;;;55.25;21.17;;;;;;;;;;5054121;28;20028;-84
2023/08/18 02:14:24;;;;;;;50.75;18.88;;;;;;;;;;5053923;28;20449;-85
2023/08/18 02:16:50;;;;;;;55.67;19.60;;;;;;;;;;5052830;28;20098;-84
2023/08/18 02:19:15;;;;;;;54.88;20.10;;;;;;;;;;5054355;28;20031;-84
2023/08/18 02:21:40;;;;;;;59.78;20.90;;;;;;;;;;5053475;28;20025;-84
2023/08/18 02:24:06;;;;;;;61.35;20.65;;;;;;;;;;5054541;28;20119;-84
2023/08/18 02:26:34;;;;;;;50.72;19.08;;;;;;;;;;5053338;28;20025;-84
2023/08/18 02:28:59;;;;;;;47.30;17.48;;;;;;;;;;5054708;28;20539;-84
2023/08/18 02:31:24;;;;;;;44.85;17.60;;;;;;;;;;5052414;28;20135;-85
2023/08/18 02:33:50;;;;;;;55.47;19.45;;;;;;;;;;5054627;28;20055;-84
2023/08/18 02:36:15;;;;;;;53.83;19.67;;;;;;;;;;5072041;28;20024;-84
2023/08/18 02:38:40;;;;;;;51.05;18.90;;;;;;;;;;5053632;28;20068;-84
2023/08/18 02:41:07;;;;;;;51.75;19.92;;;;;;;;;;5052783;28;20025;-84
2023/08/18 02:43:32;;;;;;;54.10;17.75;;;;;;;;;;5054015;28;20383;-85
2023/08/18 02:45:58;;;;;;;61.75;22.58;;;;;;;;;;5071584;28;20016;-85
2023/08/18 02:48:27;;;;;;;50.85;18.52;;;;;;;;;;5054141;28;20080;-84
2023/08/18 02:51:03;;;;;;;44.83;18.05;;;;;;;;;;5071568;28;20534;-84
2023/08/18 02:53:31;;;;;;;51.60;19.58;;;;;;;;;;5060342;28;20087;-84
2023/08/18 02:55:58;;;;;;;60.30;20.58;;;;;;;;;;5073549;28;20486;-84
2023/08/18 02:58:25;;;;;;;62.70;20.98;;;;;;;;;;5054864;28;20070;-83
2023/08/18 03:00:50;;;;;;;52.30;19.80;;;;;;;;;;5051834;28;20021;-85
2023/08/18 03:03:16;;;;;;;61.88;22.23;;;;;;;;;;5048608;28;20099;-84
2023/08/18 03:05:42;;;;;;;46.47;18.10;;;;;;;;;;5078150;28;20059;-84
2023/08/18 03:08:10;;;;;;;53.50;19.45;;;;;;;;;;5061010;28;20047;-84
2023/08/18 03:10:36;;;;;;;48.85;19.60;;;;;;;;;;5058451;28;20166;-84
2023/08/18 03:13:03;;;;;;;53.92;19.88;;;;;;;;;;5056428;28;20062;-85
2023/08/18 03:15:31;;;;;;;55.55;20.27;;;;;;;;;;5053898;28;20055;-85
2023/08/18 03:17:57;;;;;;;56.80;20.42;;;;;;;;;;5072632;28;20033;-85
2023/08/18 03:20:22;;;;;;;51.13;19.55;;;;;;;;;;5071205;28;20442;-84
2023/08/18 03:22:48;;;;;;;61.65;23.17;;;;;;;;;;5072079;28;20017;-85
2023/08/18 03:25:13;;;;;;;56.03;21.55;;;;;;;;;;5054314;28;20194;-85
2023/08/18 03:27:42;;;;;;;61.30;22.75;;;;;;;;;;5071930;28;20429;-83
2023/08/18 03:30:11;;;;;;;53.75;19.52;;;;;;;;;;5051651;28;20436;-84
2023/08/18 03:32:36;;;;;;;55.67;19.80;;;;;;;;;;5053795;28;20441;-85
2023/08/18 03:35:01;;;;;;;55.47;21.00;;;;;;;;;;5053089;28;20033;-85
2023/08/18 03:37:27;;;;;;;55.58;19.23;;;;;;;;;;5053686;28;20021;-85
2023/08/18 03:39:55;;;;;;;52.20;20.02;;;;;;;;;;5056227;28;20112;-85
2023/08/18 03:42:21;;;;;;;43.58;16.80;;;;;;;;;;5056683;28;20089;-85
2023/08/18 03:44:46;;;;;;;47.25;18.40;;;;;;;;;;5057113;28;20040;-85
2023/08/18 03:47:12;;;;;;;52.97;18.70;;;;;;;;;;5075589;28;20021;-85
2023/08/18 03:49:37;;;;;;;50.13;17.80;;;;;;;;;;5057283;28;20080;-84
2023/08/18 03:52:02;;;;;;;47.30;17.90;;;;;;;;;;5074235;28;20090;-85
2023/08/18 03:54:30;;;;;;;47.08;18.15;;;;;;;;;;5057102;28;20016;-84
2023/08/18 03:56:56;;;;;;;47.25;17.92;;;;;;;;;;5056872;28;20395;-84
2023/08/18 03:59:23;;;;;;;46.65;18.35;;;;;;;;;;5074648;28;20498;-84
2023/08/18 04:01:55;;;;;;;53.60;18.83;;;;;;;;;;5055706;28;20029;-85
2023/08/18 04:04:20;;;;;;;49.40;19.02;;;;;;;;;;5056286;28;20016;-83
2023/08/18 04:06:46;;;;;;;46.03;19.40;;;;;;;;;;5057357;28;20025;-85
2023/08/18 04:09:17;;;;;;;41.60;16.48;;;;;;;;;;5057786;28;20027;-85
2023/08/18 04:11:43;;;;;;;55.63;21.52;;;;;;;;;;5055810;28;20025;-84
2023/08/18 04:14:08;;;;;;;58.08;21.48;;;;;;;;;;5075294;28;20033;-84
2023/08/18 04:16:36;;;;;;;55.45;20.83;;;;;;;;;;5075488;28;20031;-84
2023/08/18 04:19:03;;;;;;;51.40;20.23;;;;;;;;;;5057460;28;20504;-85
2023/08/18 04:21:29;;;;;;;52.83;20.88;;;;;;;;;;5076298;28;20024;-85
2023/08/18 04:23:54;;;;;;;47.85;18.67;;;;;;;;;;5058235;28;20017;-85
2023/08/18 04:26:19;;;;;;;51.67;20.48;;;;;;;;;;5059187;28;20020;-85
2023/08/18 04:28:46;;;;;;;52.78;19.02;;;;;;;;;;5057456;28;20032;-85
2023/08/18 04:31:11;;;;;;;40.65;18.80;;;;;;;;;;5057184;28;20044;-84
2023/08/18 04:33:39;;;;;;;41.92;16.90;;;;;;;;;;5055538;28;20029;-85
2023/08/18 04:36:07;;;;;;;45.22;17.42;;;;;;;;;;5075475;28;20020;-84
2023/08/18 04:38:32;;;;;;;48.72;18.70;;;;;;;;;;5075313;28;20024;-84
2023/08/18 04:41:01;;;;;;;50.58;18.83;;;;;;;;;;5057632;28;20088;-85
2023/08/18 04:43:27;;;;;;;39.25;16.17;;;;;;;;;;5058413;28;20128;-85
2023/08/18 04:45:55;;;;;;;38.80;16.02;;;;;;;;;;5056587;28;20210;-85
2023/08/18 04:48:21;;;;;;;41.03;16.48;;;;;;;;;;5074521;28;20474;-84
2023/08/18 04:50:46;;;;;;;45.40;19.17;;;;;;;;;;5055418;28;20489;-85
2023/08/18 04:53:11;;;;;;;43.05;17.50;;;;;;;;;;5056645;28;20034;-85
2023/08/18 04:55:37;;;;;;;42.10;18.40;;;;;;;;;;5088775;28;20028;-84
2023/08/18 04:58:03;;;;;;;50.95;19.30;;;;;;;;;;5056163;28;20043;-85
2023/08/18 05:00:29;;;;;;;40.85;16.55;;;;;;;;;;5055259;28;20082;-83
2023/08/18 05:02:57;;;;;;;46.53;18.45;;;;;;;;;;5054841;28;20052;-84
2023/08/18 05:05:23;;;;;;;42.90;16.70;;;;;;;;;;5055009;28;20052;-83
2023/08/18 05:07:51;;;;;;;46.33;17.88;;;;;;;;;;5073740;28;20009;-85
2023/08/18 05:10:16;;;;;;;44.40;18.17;;;;;;;;;;5055254;28;20008;-83
2023/08/18 05:12:41;;;;;;;41.45;17.40;;;;;;;;;;5055361;28;20120;-85
2023/08/18 05:15:07;;;;;;;46.95;17.48;;;;;;;;;;5071668;28;20087;-84
2023/08/18 05:17:33;;;;;;;51.30;18.88;;;;;;;;;;5054100;28;20032;-85
2023/08/18 05:19:59;;;;;;;36.03;16.08;;;;;;;;;;5046700;28;20032;-85
2023/08/18 05:22:24;;;;;;;48.60;18.73;;;;;;;;;;5050044;28;20147;-85
2023/08/18 05:24:49;;;;;;;42.65;17.40;;;;;;;;;;5070928;28;20099;-85
2023/08/18 05:27:16;;;;;;;42.03;18.20;;;;;;;;;;5072071;28;20012;-85
2023/08/18 05:29:41;;;;;;;44.10;18.75;;;;;;;;;;5073058;28;20078;-84
2023/08/18 05:32:06;;;;;;;45.25;18.58;;;;;;;;;;5055691;28;20025;-83
2023/08/18 05:34:32;;;;;;;41.95;18.05;;;;;;;;;;5055857;28;20024;-85
2023/08/18 05:36:57;;;;;;;47.97;17.95;;;;;;;;;;5073853;28;20017;-84
2023/08/18 05:39:22;;;;;;;46.80;18.35;;;;;;;;;;5055816;28;20127;-85
2023/08/18 05:41:50;;;;;;;45.38;16.63;;;;;;;;;;5073660;28;20107;-85
2023/08/18 05:44:15;;;;;;;36.90;16.70;;;;;;;;;;5055310;28;20428;-84
2023/08/18 05:46:43;;;;;;;42.90;16.30;;;;;;;;;;5055870;28;20526;-84
2023/08/18 05:49:10;;;;;;;37.88;15.52;;;;;;;;;;5056675;28;20021;-85
2023/08/18 05:51:37;;;;;;;38.55;16.15;;;;;;;;;;5056818;28;20115;-85
2023/08/18 05:54:03;;;;;;;46.33;17.40;;;;;;;;;;5045151;28;20098;-85
2023/08/18 05:56:32;;;;;;;38.97;16.65;;;;;;;;;;5050536;28;20013;-85
2023/08/18 05:58:58;;;;;;;41.35;17.10;;;;;;;;;;5075735;28;20537;-85
2023/08/18 06:01:25;;;;;;;44.92;16.58;;;;;;;;;;5077345;28;20069;-85
2023/08/18 06:03:50;;;;;;;38.88;16.02;;;;;;;;;;5055743;28;20402;-84
2023/08/18 06:06:15;;;;;;;44.60;16.70;;;;;;;;;;5055476;28;20017;-85
2023/08/18 06:08:41;;;;;;;38.15;15.55;;;;;;;;;;5055898;28;20032;-85
2023/08/18 06:11:06;;;;;;;35.35;14.45;;;;;;;;;;5072851;28;20062;-85
2023/08/18 06:13:38;;;;;;;39.40;14.73;;;;;;;;;;5054611;28;20035;-85
2023/08/18 06:16:03;;;;;;;37.92;14.77;;;;;;;;;;5071579;28;20367;-85
2023/08/18 06:18:29;;;;;;;37.55;14.98;;;;;;;;;;5072608;28;20032;-85
2023/08/18 06:20:54;;;;;;;41.40;15.77;;;;;;;;;;5054548;28;20031;-85
2023/08/18 06:23:19;;;;;;;37.20;16.52;;;;;;;;;;5053724;28;20037;-85
2023/08/18 06:25:45;;;;;;;34.85;15.43;;;;;;;;;;5071089;28;20009;-85
2023/08/18 06:28:12;;;;;;;43.88;14.57;;;;;;;;;;5054798;28;20024;-85
2023/08/18 06:30:38;;;;;;;35.53;15.50;;;;;;;;;;5054150;28;20422;-85
2023/08/18 06:33:03;;;;;;;41.80;17.13;;;;;;;;;;5054274;28;20016;-85
2023/08/18 06:35:28;;;;;;;46.92;15.98;;;;;;;;;;5053029;28;20054;-84
2023/08/18 06:37:54;;;;;;;40.10;15.65;;;;;;;;;;5053808;28;20025;-85
2023/08/18 06:40:19;;;;;;;37.60;16.15;;;;;;;;;;5054022;28;20047;-85
2023/08/18 06:42:44;;;;;;;38.78;15.07;;;;;;;;;;5054170;28;20103;-84
2023/08/18 06:45:10;;;;;;;36.15;14.63;;;;;;;;;;5052054;28;20063;-85
2023/08/18 06:47:35;;;;;;;38.22;14.80;;;;;;;;;;5059586;28;20090;-85
2023/08/18 06:50:01;;;;;;;34.58;14.00;;;;;;;;;;5075125;28;20021;-85
2023/08/18 06:52:28;;;;;;;35.45;12.85;;;;;;;;;;5070876;28;20184;-85
2023/08/18 06:54:54;;;;;;;39.92;15.25;;;;;;;;;;5053220;28;20094;-86
2023/08/18 06:57:22;;;;;;;44.40;14.65;;;;;;;;;;5047654;28;20036;-85
2023/08/18 06:59:47;;;;;;;35.85;14.63;;;;;;;;;;5047365;28;20047;-86
2023/08/18 07:02:13;;;;;;;34.60;14.95;;;;;;;;;;5071830;28;20435;-86
2023/08/18 07:04:38;;;;;;;44.13;15.90;;;;;;;;;;5070332;28;20013;-86
2023/08/18 07:07:03;;;;;;;36.40;15.18;;;;;;;;;;5072824;28;20024;-85
2023/08/18 07:09:29;;;;;;;46.35;16.23;;;;;;;;;;5056223;28;20017;-86
2023/08/18 07:11:54;;;;;;;38.80;14.95;;;;;;;;;;5054723;28;20052;-85
2023/08/18 07:14:20;;;;;;;41.05;15.57;;;;;;;;;;5058058;28;20028;-85
2023/08/18 07:16:45;;;;;;;39.33;14.88;;;;;;;;;;5077431;28;20429;-85
2023/08/18 07:19:11;;;;;;;43.95;16.92;;;;;;;;;;5079048;28;20115;-84
2023/08/18 07:21:37;;;;;;;51.30;18.02;;;;;;;;;;5059401;28;20064;-86
2023/08/18 07:24:03;;;;;;;50.22;19.25;;;;;;;;;;5058940;28;20020;-85
2023/08/18 07:26:28;;;;;;;55.95;20.45;;;;;;;;;;5056943;28;20021;-85
2023/08/18 07:28:54;;;;;;;54.70;19.08;;;;;;;;;;5056237;28;20031;-85
2023/08/18 07:31:19;;;;;;;49.53;16.73;;;;;;;;;;5057259;28;20035;-84
2023/08/18 07:33:44;;;;;;;48.50;18.13;;;;;;;;;;5057795;28;20375;-85
2023/08/18 07:36:10;;;;;;;46.00;16.90;;;;;;;;;;5050840;28;20025;-86
2023/08/18 07:38:38;;;;;;;51.70;18.90;;;;;;;;;;5075415;28;20464;-85
2023/08/18 07:41:03;;;;;;;52.85;19.13;;;;;;;;;;5049423;28;20111;-85
2023/08/18 07:43:28;;;;;;;46.75;16.38;;;;;;;;;;5056876;28;20040;-85
2023/08/18 07:45:55;;;;;;;48.90;17.55;;;;;;;;;;5055578;28;20515;-83
2023/08/18 07:48:23;;;;;;;54.78;20.27;;;;;;;;;;5052544;28;20043;-84
2023/08/18 07:50:49;;;;;;;50.22;18.88;;;;;;;;;;5074814;28;20395;-84
2023/08/18 07:53:14;;;;;;;48.22;17.70;;;;;;;;;;5074621;28;20027;-85
2023/08/18 07:55:39;;;;;;;49.42;17.80;;;;;;;;;;5056017;28;20028;-85
2023/08/18 07:58:08;;;;;;;49.90;18.50;;;;;;;;;;5074551;28;20582;-85
2023/08/18 08:00:33;;;;;;;43.42;16.95;;;;;;;;;;5054696;28;20028;-85
2023/08/18 08:02:59;;;;;;;51.97;19.13;;;;;;;;;;5066006;28;20039;-86
2023/08/18 08:05:24;;;;;;;53.95;19.88;;;;;;;;;;5067807;28;20032;-85
2023/08/18 08:07:49;;;;;;;45.85;18.20;;;;;;;;;;5055043;28;20024;-85
2023/08/18 08:10:15;;;;;;;46.33;17.70;;;;;;;;;;5074550;28;20095;-85
2023/08/18 08:12:40;;;;;;;50.55;18.73;;;;;;;;;;5057145;28;20471;-85
2023/08/18 08:15:07;;;;;;;52.17;17.58;;;;;;;;;;5073995;28;20501;-86
2023/08/18 08:17:32;;;;;;;45.03;17.23;;;;;;;;;;5055065;28;20292;-86
2023/08/18 08:19:59;;;;;;;41.15;15.40;;;;;;;;;;5056012;28;20020;-85
2023/08/18 08:22:25;;;;;;;42.78;16.42;;;;;;;;;;5056905;28;20119;-85
2023/08/18 08:24:54;;;;;;;45.20;17.00;;;;;;;;;;5057340;28;20048;-84
2023/08/18 08:27:20;;;;;;;47.42;17.67;;;;;;;;;;5073989;28;20111;-85
2023/08/18 08:29:45;;;;;;;52.55;19.00;;;;;;;;;;5070896;28;20039;-86
2023/08/18 08:32:10;;;;;;;60.15;19.08;;;;;;;;;;5057778;28;20020;-85
2023/08/18 08:34:50;;;;;;;52.83;19.92;;;;;;;;;;5057002;28;20059;-85
2023/08/18 08:37:16;;;;;;;51.58;18.58;;;;;;;;;;5054133;28;20467;-86
2023/08/18 08:39:51;;;;;;;54.88;18.55;;;;;;;;;;5076324;28;20020;-86
2023/08/18 08:42:16;;;;;;;46.97;16.52;;;;;;;;;;5055596;28;20020;-85
2023/08/18 08:44:42;;;;;;;49.42;18.92;;;;;;;;;;5058184;28;20016;-85
2023/08/18 08:47:08;;;;;;;52.80;20.75;;;;;;;;;;5057263;28;20020;-85
2023/08/18 08:49:35;;;;;;;50.13;18.65;;;;;;;;;;5056156;28;20025;-86
2023/08/18 08:52:06;;;;;;;54.05;20.10;;;;;;;;;;5074611;28;20020;-86
2023/08/18 08:54:33;;;;;;;50.65;19.58;;;;;;;;;;5055451;28;20021;-85
2023/08/18 08:56:59;;;;;;;47.15;18.15;;;;;;;;;;5055810;28;20024;-85
2023/08/18 08:59:25;;;;;;;54.78;18.63;;;;;;;;;;5054450;28;20039;-85
2023/08/18 09:01:56;;;;;;;55.10;19.77;;;;;;;;;;5055839;28;20115;-85
2023/08/18 09:04:22;;;;;;;55.72;18.88;;;;;;;;;;5060246;28;20423;-86
2023/08/18 09:06:48;;;;;;;52.13;18.48;;;;;;;;;;5055226;28;20032;-85
2023/08/18 09:09:14;;;;;;;54.00;19.35;;;;;;;;;;5055639;28;20324;-84
2023/08/18 09:11:42;;;;;;;57.95;19.38;;;;;;;;;;5055478;28;20025;-85
2023/08/18 09:14:11;;;;;;;57.22;16.92;;;;;;;;;;5055237;28;20316;-85
2023/08/18 09:16:37;;;;;;;54.00;19.25;;;;;;;;;;5054653;28;20401;-85
2023/08/18 09:19:02;;;;;;;58.38;20.27;;;;;;;;;;5063070;28;20027;-86
2023/08/18 09:21:27;;;;;;;61.53;20.58;;;;;;;;;;5054838;28;20020;-86
2023/08/18 09:23:56;;;;;;;60.78;20.50;;;;;;;;;;5056048;28;20078;-85
2023/08/18 09:26:28;;;;;;;65.38;20.92;;;;;;;;;;5073892;28;20023;-85
2023/08/18 09:28:53;;;;;;;;;;;;;;;;;;5066794;28;20017;-85
2023/08/18 09:31:19;;;;;;;53.78;19.15;;;;;;;;;;5055313;28;19962;-86
2023/08/18 09:33:44;;;;;;;55.08;19.33;;;;;;;;;;5055848;28;20115;-86
2023/08/18 09:36:13;;;;;;;53.22;19.92;;;;;;;;;;5073273;28;20016;-86
2023/08/18 09:38:40;;;;;;;51.95;17.70;;;;;;;;;;5048826;28;20460;-85
2023/08/18 09:41:05;;;;;;;54.67;20.00;;;;;;;;;;5056588;28;20443;-85
2023/08/18 09:43:30;;;;;;;57.15;20.38;;;;;;;;;;5072528;28;20065;-86
2023/08/18 09:45:57;;;;;;;58.28;19.92;;;;;;;;;;5053417;28;20028;-85
2023/08/18 09:48:26;;;;;;;55.58;18.88;;;;;;;;;;5053907;28;20024;-86
2023/08/18 09:50:53;;;;;;;61.60;21.45;;;;;;;;;;5057933;28;20028;-86
2023/08/18 09:53:19;;;;;;;57.85;20.30;;;;;;;;;;5054648;28;20024;-86
2023/08/18 09:55:46;;;;;;;59.60;19.27;;;;;;;;;;5049505;28;20021;-86
2023/08/18 09:58:19;;;;;;;60.85;21.02;;;;;;;;;;5050029;28;20448;-85
2023/08/18 10:00:45;;;;;;;69.43;20.92;;;;;;;;;;5054844;28;20033;-84
2023/08/18 10:03:14;;;;;;;62.75;22.02;;;;;;;;;;5072905;28;20017;-84
2023/08/18 10:05:39;;;;;;;63.55;20.80;;;;;;;;;;5076263;28;20019;-83
2023/08/18 10:08:05;;;;;;;74.97;25.23;;;;;;;;;;5056361;28;20016;-84
2023/08/18 10:10:30;;;;;;;84.35;23.60;;;;;;;;;;5061101;28;20152;-84
2023/08/18 10:12:56;;;;;;;67.40;22.05;;;;;;;;;;5057455;28;20020;-83
2023/08/18 10:15:22;;;;;;;62.63;19.98;;;;;;;;;;5072328;28;20391;-83
2023/08/18 10:17:50;;;;;;;68.38;21.92;;;;;;;;;;5054765;28;20051;-83
2023/08/18 10:20:15;;;;;;;70.57;23.98;;;;;;;;;;5060103;28;20607;-83
2023/08/18 10:22:42;;;;;;;65.28;22.73;;;;;;;;;;5053529;28;20031;-84
2023/08/18 10:25:08;;;;;;;87.43;25.88;;;;;;;;;;5060037;28;20031;-83
2023/08/18 10:27:37;;;;;;;63.75;20.33;;;;;;;;;;5050444;28;20027;-83
2023/08/18 10:30:09;;;;;;;69.30;22.23;;;;;;;;;;5056653;28;20091;-84
2023/08/18 10:32:34;;;;;;;65.53;20.42;;;;;;;;;;5054254;28;20345;-84
2023/08/18 10:35:20;;;;;;;75.28;22.38;;;;;;;;;;5052884;28;20028;-83
2023/08/18 10:38:07;;;;;;;66.65;21.00;;;;;;;;;;5053883;28;20024;-84
2023/08/18 10:40:37;;;;;;;70.05;22.85;;;;;;;;;;5039605;28;20028;-84
2023/08/18 10:43:02;;;;;;;64.38;19.40;;;;;;;;;;5053798;28;20020;-83
2023/08/18 10:45:28;;;;;;;77.50;23.83;;;;;;;;;;5052824;28;20024;-83
2023/08/18 10:47:57;;;;;;;72.38;22.67;;;;;;;;;;5053737;28;20029;-84
2023/08/18 10:50:23;;;;;;;75.70;22.10;;;;;;;;;;5056698;28;20029;-84
2023/08/18 10:52:52;;;;;;;72.80;21.38;;;;;;;;;;5068286;28;20021;-84
2023/08/18 10:55:18;;;;;;;80.15;22.65;;;;;;;;;;5053329;28;20103;-84
2023/08/18 10:57:46;;;;;;;73.78;23.08;;;;;;;;;;5076326;28;20052;-84
2023/08/18 11:00:11;;;;;;;72.35;23.00;;;;;;;;;;5070527;28;20062;-84
2023/08/18 11:02:37;;;;;;;72.70;23.20;;;;;;;;;;5051425;28;20028;-84
2023/08/18 11:05:04;;;;;;;74.10;22.17;;;;;;;;;;5078355;28;20043;-84
2023/08/18 11:07:30;;;;;;;77.55;21.20;;;;;;;;;;5065414;28;20569;-84
2023/08/18 11:09:57;;;;;;;59.38;19.15;;;;;;;;;;5055647;28;20413;-84
2023/08/18 11:12:23;;;;;;;63.45;20.40;;;;;;;;;;5072402;28;20035;-83
2023/08/18 11:14:48;;;;;;;70.28;22.23;;;;;;;;;;5051751;28;20024;-84
2023/08/18 11:17:14;;;;;;;83.55;24.33;;;;;;;;;;5074065;28;20060;-84
2023/08/18 11:19:39;;;;;;;78.65;22.60;;;;;;;;;;5074193;28;20021;-84
2023/08/18 11:22:04;;;;;;;65.25;20.55;;;;;;;;;;5060246;28;20024;-84
2023/08/18 11:24:30;;;;;;;79.90;23.40;;;;;;;;;;5072210;28;20020;-84
2023/08/18 11:26:56;;;;;;;74.13;22.73;;;;;;;;;;5054524;28;20016;-82
2023/08/18 11:29:25;;;;;;;66.75;21.95;;;;;;;;;;5048114;28;20017;-83
2023/08/18 11:31:50;;;;;;;66.68;22.08;;;;;;;;;;5064099;28;20020;-82
2023/08/18 11:34:16;;;;;;;66.78;21.00;;;;;;;;;;5060555;28;20016;-82
2023/08/18 11:36:41;;;;;;;62.75;20.15;;;;;;;;;;5063299;28;20028;-82
2023/08/18 11:39:07;;;;;;;69.57;21.50;;;;;;;;;;5068957;28;20093;-82
2023/08/18 11:41:43;;;;;;;66.25;20.15;;;;;;;;;;5075108;28;20031;-82
2023/08/18 11:44:10;;;;;;;65.75;19.30;;;;;;;;;;5056873;28;20120;-81
2023/08/18 11:46:43;;;;;;;61.78;20.25;;;;;;;;;;5062766;28;20494;-82
2023/08/18 11:49:12;;;;;;;72.60;21.00;;;;;;;;;;5054202;28;20052;-82
2023/08/18 11:51:53;;;;;;;63.80;19.85;;;;;;;;;;5055712;28;20393;-82
2023/08/18 11:54:18;;;;;;;75.20;21.65;;;;;;;;;;5060818;28;20020;-82
2023/08/18 11:56:44;;;;;;;68.97;21.23;;;;;;;;;;5065866;28;20024;-81
2023/08/18 11:59:17;;;;;;;60.72;19.15;;;;;;;;;;5051805;28;20028;-82
2023/08/18 12:01:42;;;;;;;68.25;20.05;;;;;;;;;;5072386;28;20080;-83
2023/08/18 12:04:12;;;;;;;70.10;21.20;;;;;;;;;;5053763;28;20044;-83
2023/08/18 12:06:39;;;;;;;63.67;20.15;;;;;;;;;;5059148;28;20013;-83
2023/08/18 12:09:06;;;;;;;60.88;18.92;;;;;;;;;;5054464;28;20402;-82
2023/08/18 12:11:34;;;;;;;68.28;21.38;;;;;;;;;;5059258;28;20103;-82
2023/08/18 12:14:00;;;;;;;61.08;20.05;;;;;;;;;;5057902;28;20553;-83
2023/08/18 12:16:28;;;;;;;73.68;22.42;;;;;;;;;;5057332;28;20024;-83
2023/08/18 12:18:53;;;;;;;72.93;21.63;;;;;;;;;;5054510;28;20124;-82
2023/08/18 12:21:18;;;;;;;63.83;19.55;;;;;;;;;;5056185;28;20103;-82
2023/08/18 12:23:43;;;;;;;58.83;20.45;;;;;;;;;;5051373;28;20074;-82
2023/08/18 12:26:10;;;;;;;61.75;18.48;;;;;;;;;;5054727;28;20082;-82
2023/08/18 12:28:38;;;;;;;65.10;20.10;;;;;;;;;;5052800;28;20012;-82
2023/08/18 12:31:03;;;;;;;70.90;20.92;;;;;;;;;;5053971;28;20391;-82
2023/08/18 12:33:29;;;;;;;68.43;20.10;;;;;;;;;;5053809;28;20036;-82
2023/08/18 12:35:54;;;;;;;62.75;20.13;;;;;;;;;;5050114;28;20082;-83
2023/08/18 12:38:19;;;;;;;60.50;18.67;;;;;;;;;;5055175;28;20021;-82
2023/08/18 12:40:45;;;;;;;62.45;20.45;;;;;;;;;;5073795;28;20024;-82
2023/08/18 12:43:10;;;;;;;82.25;22.83;;;;;;;;;;5064086;28;20488;-83
2023/08/18 12:45:36;;;;;;;70.20;21.75;;;;;;;;;;5045406;28;20016;-83
2023/08/18 12:48:02;;;;;;;78.53;23.08;;;;;;;;;;5050021;28;20058;-82
2023/08/18 12:50:27;;;;;;;74.47;22.92;;;;;;;;;;5073230;28;20027;-82
2023/08/18 12:52:52;;;;;;;68.00;22.80;;;;;;;;;;5054567;28;20123;-82
2023/08/18 12:55:18;;;;;;;110.82;27.73;;;;;;;;;;5055914;28;20048;-83
2023/08/18 12:57:45;;;;;;;100.95;27.00;;;;;;;;;;5057449;28;20029;-83
2023/08/18 13:00:11;;;;;;;88.13;24.15;;;;;;;;;;5071791;28;20398;-84
2023/08/18 13:02:36;;;;;;;79.55;23.58;;;;;;;;;;5054994;28;20360;-84
2023/08/18 13:05:02;;;;;;;85.32;24.35;;;;;;;;;;5055570;28;20086;-85
2023/08/18 13:07:28;;;;;;;73.95;22.67;;;;;;;;;;5055410;28;20278;-84
2023/08/18 13:09:53;;;;;;;97.10;27.05;;;;;;;;;;5055637;28;20032;-84
2023/08/18 13:12:19;;;;;;;69.82;23.45;;;;;;;;;;5057310;28;20027;-83
2023/08/18 13:14:45;;;;;;;91.55;25.45;;;;;;;;;;5065186;28;20028;-84
2023/08/18 13:17:11;;;;;;;71.32;23.10;;;;;;;;;;5073377;28;20024;-85
2023/08/18 13:19:37;;;;;;;86.90;24.35;;;;;;;;;;5054904;28;20105;-84
2023/08/18 13:22:02;;;;;;;76.30;24.90;;;;;;;;;;5055550;28;20056;-84
2023/08/18 13:24:27;;;;;;;73.53;23.27;;;;;;;;;;5055028;28;20440;-84
2023/08/18 13:26:55;;;;;;;87.22;25.92;;;;;;;;;;5055278;28;20086;-84
2023/08/18 13:29:20;;;;;;;96.65;27.45;;;;;;;;;;5054993;28;20078;-84
2023/08/18 13:31:48;;;;;;;70.20;23.83;;;;;;;;;;5055500;28;20024;-84
2023/08/18 13:34:13;;;;;;;66.32;21.52;;;;;;;;;;5055205;28;20143;-84
2023/08/18 13:36:40;;;;;;;81.75;26.92;;;;;;;;;;5054414;28;20103;-84
2023/08/18 13:39:06;;;;;;;72.70;23.98;;;;;;;;;;5049844;28;20021;-85
2023/08/18 13:41:31;;;;;;;84.60;25.77;;;;;;;;;;5054166;28;20036;-85
2023/08/18 13:43:57;;;;;;;99.25;27.63;;;;;;;;;;5040714;28;20020;-84
2023/08/18 13:46:22;;;;;;;101.18;28.67;;;;;;;;;;5054646;28;20073;-84
2023/08/18 13:48:48;;;;;;;74.07;23.50;;;;;;;;;;5052866;28;20036;-84
2023/08/18 13:51:13;;;;;;;70.88;24.55;;;;;;;;;;5054487;28;20028;-84
2023/08/18 13:53:38;;;;;;;90.22;26.75;;;;;;;;;;5053364;28;20062;-84
2023/08/18 13:56:05;;;;;;;76.60;23.08;;;;;;;;;;5053912;28;20101;-84
2023/08/18 13:58:33;;;;;;;79.07;24.73;;;;;;;;;;5045297;28;20025;-85
2023/08/18 14:00:59;;;;;;;77.05;24.88;;;;;;;;;;5037414;28;20029;-84
2023/08/18 14:03:24;;;;;;;80.00;24.30;;;;;;;;;;5053463;28;20028;-84
2023/08/18 14:05:59;;;;;;;86.32;24.60;;;;;;;;;;5054473;28;20099;-84
2023/08/18 14:08:25;;;;;;;86.47;27.02;;;;;;;;;;5072477;28;20470;-84
2023/08/18 14:10:50;;;;;;;100.45;29.02;;;;;;;;;;5054459;28;20468;-84
2023/08/18 14:13:15;;;;;;;79.93;25.98;;;;;;;;;;5071645;28;20107;-84